Pincher Creek Airport
CZPC : now visible

Airfield :











YOU CAN JOIN US ON...

 
LOGIN :

Register | Disclaimer

   EN    FR    IT 

 









Legend :    VFR   Marginal VFR   IFR   Intensive IFR   Very Intensive IFR
Visi :
Ceiling :
>= 8 km
>= 3000ft
5 to 8 km
1000 to 3000 ft
1500m to 5 km
500 to 1000 ft
800 to 1500m
200 to 500 ft
< 800m
< 200 ft
Symbols :   Thunderstorms  Fog  Heavy snow  Heavy precipitations  Wind > 20 kt







- Airport Elevation : 3903 ft


CZPC - Pincher Creek

CURRENT METAR :
  • 260404Z AUTO 01005G17KT 6SM -RA BR BKN043 BKN055 OVC070 10/08 A3008 RMK SLP194 DENSITY ALT 4000FT

EXPIRED METARs :
  • 260357Z AUTO 35013G20KT 6SM +RA BR BKN041 OVC055 10/08 A3008 RMK SLP198 DENSITY ALT 4000FT
  • 260347Z AUTO 34010G16KT 9SM -RA BKN041 BKN065 OVC093 11/08 A3008 RMK SLP195 DENSITY ALT 4100FT
  • 260333Z AUTO 30014G19KT 9SM FEW041 SCT065 BKN094 10/08 A3007 RMK WSHFT AT 0322Z PRESRR SLP193 DENSITY ALT 4000FT
  • 260300Z AUTO 04006KT 9SM SCT100 10/08 A3003 RMK LTNG DIST NW SLP181 DENSITY ALT 4100FT
  • 260200Z AUTO 24007KT 9SM BKN095 13/09 A3001 RMK SLP172 DENSITY ALT 4400FT

TAF N/A
No reported NOTAMs for that airfield.



MET'MAP, your aeronautical weather chart ! - Copyright ORBIFLY December 2007 - Disclaimer

ORBIFLY MET'MAP TEAM :

Programming & Development : Alexandra Zaïnal
Concept & Development : Baudouin d'Aumeries
Co-Development & Prog : Marc-Olivier Méhu
Technical & hardware support : Manuel Goepfert

Contact : metmap@orbifly.com




SOURCES & CREDITS :

   NOAA       Earth
Advisory